RYS001 LHBP-LATI
Flight info
| Callsign | RYS001 |
|---|---|
| Flight time | 1h 6m |
| Altitude | 37000 |
| Route | FAHAZ DCT KEROP DCT TORTO/N0448F380 DCT YUYUH/N0447F370 DCT AKIKA DCT INLOT |
| Aircraft | B38M/M-SDE1FGHILORVWXY/HB1 |
Departure
| Time | 2026-05-07 11:11 |
|---|---|
| Airport | Budapest Liszt Ferenc International Airport (LHBP) |
Arrival
| Time | 2026-05-07 12:18 |
|---|---|
| Airport | Tirana International Airport Mother Teresa (LATI) |
| Time | Latitude | Longitude | Altitude | Speed | Heading |
|---|---|---|---|---|---|
| 2026-05-07 10:37 | 47.43543 | 19.26017 | 460 ft | 0 kts | 312° |
| 2026-05-07 11:06 | 47.43544 | 19.26015 | 460 ft | 1 kts | 313° |
| 2026-05-07 11:06 | 47.43554 | 19.26001 | 460 ft | 3 kts | 313° |
| 2026-05-07 11:06 | 47.43568 | 19.25968 | 458 ft | 5 kts | 288° |
| 2026-05-07 11:07 | 47.43557 | 19.25919 | 460 ft | 6 kts | 233° |
| 2026-05-07 11:07 | 47.43514 | 19.25858 | 460 ft | 11 kts | 223° |
| 2026-05-07 11:07 | 47.43455 | 19.25778 | 458 ft | 12 kts | 221° |
| 2026-05-07 11:07 | 47.43389 | 19.25690 | 460 ft | 14 kts | 223° |
| 2026-05-07 11:08 | 47.43324 | 19.25604 | 458 ft | 12 kts | 222° |
| 2026-05-07 11:08 | 47.43297 | 19.25517 | 460 ft | 10 kts | 287° |
| 2026-05-07 11:08 | 47.43340 | 19.25424 | 460 ft | 11 kts | 284° |
| 2026-05-07 11:08 | 47.43299 | 19.25326 | 460 ft | 12 kts | 223° |
| 2026-05-07 11:09 | 47.43232 | 19.25236 | 458 ft | 14 kts | 223° |
| 2026-05-07 11:09 | 47.43157 | 19.25137 | 460 ft | 15 kts | 221° |
| 2026-05-07 11:09 | 47.43087 | 19.25043 | 459 ft | 9 kts | 222° |
| 2026-05-07 11:09 | 47.43073 | 19.24983 | 459 ft | 5 kts | 308° |
| 2026-05-07 11:10 | 47.43082 | 19.24969 | 460 ft | 0 kts | 313° |
| 2026-05-07 11:10 | 47.43147 | 19.24865 | 457 ft | 43 kts | 311° |
| 2026-05-07 11:10 | 47.43500 | 19.24294 | 453 ft | 106 kts | 312° |
| 2026-05-07 11:10 | 47.44123 | 19.23277 | 457 ft | 159 kts | 312° |
| 2026-05-07 11:11 | 47.44943 | 19.21999 | 812 ft | 179 kts | 308° |
| 2026-05-07 11:11 | 47.45783 | 19.20649 | 1697 ft | 173 kts | 307° |
| 2026-05-07 11:11 | 47.46585 | 19.19327 | 2531 ft | 180 kts | 308° |
| 2026-05-07 11:11 | 47.47472 | 19.17864 | 3196 ft | 205 kts | 308° |
| 2026-05-07 11:12 | 47.48360 | 19.16098 | 3794 ft | 221 kts | 292° |
| 2026-05-07 11:12 | 47.48948 | 19.13920 | 4255 ft | 237 kts | 279° |
| 2026-05-07 11:12 | 47.48896 | 19.11478 | 4693 ft | 250 kts | 251° |
| 2026-05-07 11:12 | 47.47963 | 19.09319 | 5460 ft | 251 kts | 221° |
| 2026-05-07 11:13 | 47.46427 | 19.07988 | 6281 ft | 257 kts | 207° |
| 2026-05-07 11:13 | 47.44830 | 19.06820 | 7008 ft | 260 kts | 207° |
| 2026-05-07 11:13 | 47.43205 | 19.05640 | 7873 ft | 261 kts | 207° |
| 2026-05-07 11:13 | 47.41571 | 19.04465 | 8717 ft | 261 kts | 207° |
| 2026-05-07 11:14 | 47.39930 | 19.03295 | 9517 ft | 263 kts | 206° |
| 2026-05-07 11:14 | 47.38275 | 19.02121 | 10280 ft | 266 kts | 206° |
| 2026-05-07 11:14 | 47.36547 | 19.00898 | 10629 ft | 285 kts | 206° |
| 2026-05-07 11:14 | 47.34706 | 18.99597 | 10987 ft | 301 kts | 206° |
| 2026-05-07 11:15 | 47.32784 | 18.98259 | 11566 ft | 307 kts | 206° |
| 2026-05-07 11:15 | 47.30834 | 18.96923 | 12330 ft | 312 kts | 206° |
| 2026-05-07 11:15 | 47.28857 | 18.95569 | 13052 ft | 316 kts | 205° |
| 2026-05-07 11:15 | 47.26851 | 18.94197 | 13824 ft | 320 kts | 206° |
| 2026-05-07 11:16 | 47.24820 | 18.92809 | 14508 ft | 323 kts | 205° |
| 2026-05-07 11:16 | 47.22793 | 18.91425 | 15199 ft | 327 kts | 205° |
| 2026-05-07 11:16 | 47.20717 | 18.90008 | 15916 ft | 331 kts | 205° |
| 2026-05-07 11:16 | 47.18609 | 18.88571 | 16620 ft | 335 kts | 205° |
| 2026-05-07 11:17 | 47.16478 | 18.87120 | 17321 ft | 339 kts | 205° |
| 2026-05-07 11:17 | 47.14332 | 18.85659 | 17988 ft | 343 kts | 205° |
| 2026-05-07 11:17 | 47.12075 | 18.84491 | 18565 ft | 347 kts | 190° |
| 2026-05-07 11:17 | 47.09657 | 18.84513 | 19155 ft | 353 kts | 171° |
| 2026-05-07 11:18 | 47.07326 | 18.85759 | 19670 ft | 362 kts | 152° |
| 2026-05-07 11:18 | 47.05237 | 18.87854 | 20263 ft | 366 kts | 149° |
| 2026-05-07 11:18 | 47.03130 | 18.89998 | 20788 ft | 370 kts | 148° |
| 2026-05-07 11:18 | 47.01022 | 18.92172 | 21371 ft | 372 kts | 148° |
| 2026-05-07 11:19 | 46.98897 | 18.94379 | 21910 ft | 376 kts | 148° |
| 2026-05-07 11:19 | 46.96760 | 18.96611 | 22485 ft | 378 kts | 148° |
| 2026-05-07 11:19 | 46.94636 | 18.98830 | 22991 ft | 382 kts | 149° |
| 2026-05-07 11:19 | 46.92461 | 19.01102 | 23524 ft | 385 kts | 149° |
| 2026-05-07 11:20 | 46.90272 | 19.03388 | 23952 ft | 388 kts | 149° |
| 2026-05-07 11:20 | 46.88026 | 19.05590 | 24365 ft | 389 kts | 152° |
| 2026-05-07 11:20 | 46.85728 | 19.07705 | 24839 ft | 391 kts | 152° |
| 2026-05-07 11:20 | 46.83420 | 19.09848 | 25227 ft | 394 kts | 152° |
| 2026-05-07 11:21 | 46.81100 | 19.12010 | 25658 ft | 396 kts | 152° |
| 2026-05-07 11:21 | 46.78764 | 19.14187 | 26017 ft | 400 kts | 152° |
| 2026-05-07 11:21 | 46.76413 | 19.16377 | 26420 ft | 402 kts | 152° |
| 2026-05-07 11:21 | 46.74044 | 19.18582 | 26830 ft | 405 kts | 153° |
| 2026-05-07 11:22 | 46.71693 | 19.20767 | 27236 ft | 407 kts | 153° |
| 2026-05-07 11:22 | 46.69300 | 19.22989 | 27622 ft | 409 kts | 153° |
| 2026-05-07 11:22 | 46.66889 | 19.25226 | 28004 ft | 412 kts | 153° |
| 2026-05-07 11:22 | 46.64463 | 19.27475 | 28394 ft | 414 kts | 153° |
| 2026-05-07 11:23 | 46.62025 | 19.29732 | 28764 ft | 416 kts | 153° |
| 2026-05-07 11:23 | 46.59575 | 19.31998 | 29131 ft | 419 kts | 153° |
| 2026-05-07 11:23 | 46.57110 | 19.34274 | 29446 ft | 421 kts | 154° |
| 2026-05-07 11:23 | 46.54625 | 19.36567 | 29714 ft | 425 kts | 154° |
| 2026-05-07 11:24 | 46.52119 | 19.38878 | 30074 ft | 427 kts | 154° |
| 2026-05-07 11:24 | 46.49606 | 19.41199 | 30415 ft | 428 kts | 152° |
| 2026-05-07 11:24 | 46.47099 | 19.43524 | 30763 ft | 428 kts | 154° |
| 2026-05-07 11:24 | 46.44574 | 19.45827 | 30934 ft | 429 kts | 153° |
| 2026-05-07 11:25 | 46.42053 | 19.48133 | 31187 ft | 429 kts | 154° |
| 2026-05-07 11:25 | 46.39507 | 19.50469 | 31346 ft | 435 kts | 153° |
| 2026-05-07 11:25 | 46.36944 | 19.52810 | 31814 ft | 436 kts | 153° |
| 2026-05-07 11:25 | 46.34375 | 19.55157 | 32079 ft | 438 kts | 154° |
| 2026-05-07 11:26 | 46.31800 | 19.57512 | 32499 ft | 438 kts | 154° |
| 2026-05-07 11:26 | 46.29217 | 19.59878 | 32599 ft | 442 kts | 153° |
| 2026-05-07 11:26 | 46.26614 | 19.62248 | 32875 ft | 442 kts | 153° |
| 2026-05-07 11:26 | 46.24012 | 19.64616 | 33258 ft | 442 kts | 153° |
| 2026-05-07 11:27 | 46.21438 | 19.66953 | 33682 ft | 440 kts | 154° |
| 2026-05-07 11:27 | 46.18719 | 19.68813 | 34086 ft | 427 kts | 169° |
| 2026-05-07 11:27 | 46.15833 | 19.69431 | 34449 ft | 416 kts | 182° |
| 2026-05-07 11:27 | 46.12933 | 19.69573 | 34663 ft | 418 kts | 181° |
| 2026-05-07 11:28 | 46.10022 | 19.69705 | 34914 ft | 418 kts | 182° |
| 2026-05-07 11:28 | 46.07105 | 19.69794 | 35031 ft | 420 kts | 182° |
| 2026-05-07 11:28 | 46.01298 | 19.69909 | 35020 ft | 416 kts | 183° |
| 2026-05-07 11:29 | 45.95499 | 19.69996 | 35025 ft | 417 kts | 183° |
| 2026-05-07 11:29 | 45.89742 | 19.70078 | 35024 ft | 416 kts | 183° |
| 2026-05-07 11:30 | 45.83946 | 19.70160 | 35021 ft | 416 kts | 183° |
| 2026-05-07 11:30 | 45.78166 | 19.70243 | 35017 ft | 415 kts | 183° |
| 2026-05-07 11:31 | 45.72381 | 19.70325 | 35020 ft | 415 kts | 183° |
| 2026-05-07 11:31 | 45.66594 | 19.70407 | 35021 ft | 416 kts | 183° |
| 2026-05-07 11:32 | 45.57918 | 19.70529 | 35019 ft | 415 kts | 183° |
| 2026-05-07 11:33 | 45.52173 | 19.70610 | 35022 ft | 415 kts | 183° |
| 2026-05-07 11:33 | 45.46393 | 19.70691 | 35021 ft | 415 kts | 183° |
| 2026-05-07 11:34 | 45.40613 | 19.70773 | 35023 ft | 414 kts | 182° |
| 2026-05-07 11:34 | 45.34838 | 19.70853 | 35016 ft | 414 kts | 183° |
| 2026-05-07 11:35 | 45.29013 | 19.70934 | 35023 ft | 421 kts | 183° |
| 2026-05-07 11:35 | 45.23194 | 19.71015 | 35019 ft | 420 kts | 183° |
| 2026-05-07 11:36 | 45.17338 | 19.71096 | 35022 ft | 421 kts | 183° |
| 2026-05-07 11:36 | 45.11475 | 19.71178 | 35035 ft | 421 kts | 183° |
| 2026-05-07 11:37 | 45.05613 | 19.71259 | 35022 ft | 421 kts | 183° |
| 2026-05-07 11:37 | 44.99752 | 19.71340 | 35021 ft | 421 kts | 183° |
| 2026-05-07 11:38 | 44.93893 | 19.71421 | 35028 ft | 421 kts | 183° |
| 2026-05-07 11:38 | 44.88032 | 19.71501 | 35027 ft | 421 kts | 183° |
| 2026-05-07 11:39 | 44.82206 | 19.71582 | 35031 ft | 421 kts | 182° |
| 2026-05-07 11:39 | 44.76356 | 19.71661 | 35008 ft | 421 kts | 183° |
| 2026-05-07 11:40 | 44.70491 | 19.71742 | 35027 ft | 422 kts | 183° |
| 2026-05-07 11:40 | 44.64617 | 19.71822 | 35039 ft | 421 kts | 183° |
| 2026-05-07 11:41 | 44.58767 | 19.71902 | 35026 ft | 419 kts | 182° |
| 2026-05-07 11:41 | 44.52941 | 19.71981 | 35025 ft | 419 kts | 182° |
| 2026-05-07 11:42 | 44.47113 | 19.72061 | 35042 ft | 419 kts | 182° |
| 2026-05-07 11:42 | 44.41289 | 19.72140 | 35038 ft | 418 kts | 182° |
| 2026-05-07 11:43 | 44.35460 | 19.72218 | 35041 ft | 419 kts | 182° |
| 2026-05-07 11:43 | 44.29632 | 19.72296 | 35066 ft | 420 kts | 182° |
| 2026-05-07 11:43 | 44.26715 | 19.72336 | 35369 ft | 419 kts | 182° |
| 2026-05-07 11:44 | 44.23794 | 19.72375 | 35635 ft | 420 kts | 182° |
| 2026-05-07 11:44 | 44.20911 | 19.72414 | 35858 ft | 421 kts | 182° |
| 2026-05-07 11:44 | 44.17971 | 19.72454 | 35992 ft | 424 kts | 182° |
| 2026-05-07 11:44 | 44.15022 | 19.72493 | 36228 ft | 424 kts | 182° |
| 2026-05-07 11:45 | 44.12070 | 19.72533 | 36462 ft | 424 kts | 182° |
| 2026-05-07 11:45 | 44.09116 | 19.72572 | 36703 ft | 424 kts | 182° |
| 2026-05-07 11:45 | 44.07121 | 19.72599 | 36867 ft | 424 kts | 182° |
| 2026-05-07 11:45 | 44.04204 | 19.72638 | 37039 ft | 425 kts | 182° |
| 2026-05-07 11:46 | 44.01239 | 19.72677 | 37047 ft | 426 kts | 182° |
| 2026-05-07 11:46 | 43.95317 | 19.72756 | 37056 ft | 425 kts | 182° |
| 2026-05-07 11:47 | 43.89404 | 19.72836 | 37032 ft | 424 kts | 182° |
| 2026-05-07 11:47 | 43.83497 | 19.72914 | 37041 ft | 425 kts | 182° |
| 2026-05-07 11:48 | 43.77623 | 19.72991 | 37073 ft | 425 kts | 182° |
| 2026-05-07 11:48 | 43.71713 | 19.73069 | 37054 ft | 424 kts | 182° |
| 2026-05-07 11:49 | 43.65820 | 19.72895 | 37042 ft | 421 kts | 192° |
| 2026-05-07 11:49 | 43.60057 | 19.71595 | 36848 ft | 415 kts | 191° |
| 2026-05-07 11:49 | 43.57218 | 19.70988 | 36590 ft | 410 kts | 191° |
| 2026-05-07 11:50 | 43.54415 | 19.70385 | 36357 ft | 407 kts | 191° |
| 2026-05-07 11:50 | 43.51633 | 19.69784 | 36115 ft | 403 kts | 191° |
| 2026-05-07 11:50 | 43.48865 | 19.69185 | 35870 ft | 400 kts | 191° |
| 2026-05-07 11:50 | 43.46123 | 19.68594 | 35630 ft | 395 kts | 191° |
| 2026-05-07 11:51 | 43.43456 | 19.68018 | 35158 ft | 392 kts | 191° |
| 2026-05-07 11:51 | 43.40760 | 19.67439 | 34517 ft | 393 kts | 191° |
| 2026-05-07 11:51 | 43.38055 | 19.66857 | 33932 ft | 393 kts | 190° |
| 2026-05-07 11:51 | 43.35364 | 19.66277 | 33400 ft | 390 kts | 190° |
| 2026-05-07 11:52 | 43.32696 | 19.65703 | 32930 ft | 386 kts | 191° |
| 2026-05-07 11:52 | 43.30060 | 19.65137 | 32471 ft | 381 kts | 191° |
| 2026-05-07 11:52 | 43.27461 | 19.64579 | 32043 ft | 377 kts | 191° |
| 2026-05-07 11:52 | 43.24923 | 19.64037 | 31614 ft | 372 kts | 191° |
| 2026-05-07 11:53 | 43.22351 | 19.63757 | 31075 ft | 373 kts | 182° |
| 2026-05-07 11:53 | 43.19766 | 19.63771 | 30634 ft | 368 kts | 185° |
| 2026-05-07 11:53 | 43.17227 | 19.63659 | 30306 ft | 362 kts | 185° |
| 2026-05-07 11:53 | 43.14723 | 19.63540 | 29871 ft | 359 kts | 186° |
| 2026-05-07 11:54 | 43.12225 | 19.63412 | 29403 ft | 357 kts | 186° |
| 2026-05-07 11:54 | 43.09757 | 19.63286 | 28998 ft | 353 kts | 186° |
| 2026-05-07 11:54 | 43.07309 | 19.63160 | 28623 ft | 350 kts | 186° |
| 2026-05-07 11:54 | 43.04887 | 19.63035 | 28227 ft | 346 kts | 186° |
| 2026-05-07 11:55 | 43.02519 | 19.62911 | 27879 ft | 343 kts | 186° |
| 2026-05-07 11:55 | 43.00110 | 19.62786 | 27481 ft | 340 kts | 186° |
| 2026-05-07 11:55 | 42.97786 | 19.62667 | 27152 ft | 337 kts | 186° |
| 2026-05-07 11:55 | 42.95450 | 19.62545 | 26781 ft | 335 kts | 186° |
| 2026-05-07 11:56 | 42.93131 | 19.62425 | 26427 ft | 332 kts | 186° |
| 2026-05-07 11:56 | 42.90827 | 19.62307 | 26088 ft | 331 kts | 186° |
| 2026-05-07 11:56 | 42.88521 | 19.62187 | 25721 ft | 330 kts | 187° |
| 2026-05-07 11:56 | 42.86221 | 19.62067 | 25380 ft | 333 kts | 187° |
| 2026-05-07 11:57 | 42.83880 | 19.61948 | 25036 ft | 338 kts | 187° |
| 2026-05-07 11:57 | 42.81527 | 19.61827 | 24688 ft | 339 kts | 187° |
| 2026-05-07 11:57 | 42.79170 | 19.61705 | 24347 ft | 339 kts | 187° |
| 2026-05-07 11:57 | 42.76820 | 19.61584 | 23990 ft | 336 kts | 187° |
| 2026-05-07 11:58 | 42.74484 | 19.61465 | 23663 ft | 335 kts | 187° |
| 2026-05-07 11:58 | 42.72186 | 19.61347 | 23243 ft | 333 kts | 187° |
| 2026-05-07 11:58 | 42.69881 | 19.61229 | 22876 ft | 330 kts | 186° |
| 2026-05-07 11:58 | 42.67602 | 19.61112 | 22558 ft | 326 kts | 187° |
| 2026-05-07 11:59 | 42.65338 | 19.60996 | 22225 ft | 324 kts | 186° |
| 2026-05-07 11:59 | 42.63097 | 19.60881 | 21878 ft | 321 kts | 187° |
| 2026-05-07 11:59 | 42.60880 | 19.60767 | 21565 ft | 317 kts | 186° |
| 2026-05-07 11:59 | 42.58688 | 19.60654 | 21248 ft | 313 kts | 186° |
| 2026-05-07 12:00 | 42.56509 | 19.60544 | 20942 ft | 314 kts | 186° |
| 2026-05-07 12:00 | 42.54301 | 19.60429 | 20609 ft | 320 kts | 186° |
| 2026-05-07 12:00 | 42.52101 | 19.60064 | 20208 ft | 318 kts | 198° |
| 2026-05-07 12:00 | 42.49957 | 19.59350 | 19884 ft | 316 kts | 196° |
| 2026-05-07 12:01 | 42.47814 | 19.58722 | 19598 ft | 314 kts | 196° |
| 2026-05-07 12:01 | 42.45681 | 19.58116 | 19285 ft | 313 kts | 196° |
| 2026-05-07 12:01 | 42.43584 | 19.57535 | 18970 ft | 310 kts | 195° |
| 2026-05-07 12:01 | 42.41469 | 19.56956 | 18659 ft | 309 kts | 195° |
| 2026-05-07 12:02 | 42.39367 | 19.56389 | 18345 ft | 306 kts | 195° |
| 2026-05-07 12:02 | 42.37277 | 19.55825 | 17991 ft | 305 kts | 195° |
| 2026-05-07 12:02 | 42.35203 | 19.55265 | 17661 ft | 302 kts | 195° |
| 2026-05-07 12:02 | 42.33143 | 19.54711 | 17352 ft | 300 kts | 195° |
| 2026-05-07 12:03 | 42.31105 | 19.54165 | 17042 ft | 297 kts | 195° |
| 2026-05-07 12:03 | 42.29088 | 19.53623 | 16741 ft | 294 kts | 195° |
| 2026-05-07 12:03 | 42.27091 | 19.53086 | 16444 ft | 292 kts | 195° |
| 2026-05-07 12:03 | 42.25103 | 19.52553 | 16147 ft | 291 kts | 195° |
| 2026-05-07 12:04 | 42.23099 | 19.52015 | 15822 ft | 296 kts | 196° |
| 2026-05-07 12:04 | 42.21061 | 19.51469 | 15512 ft | 300 kts | 195° |
| 2026-05-07 12:04 | 42.19046 | 19.50929 | 15224 ft | 298 kts | 195° |
| 2026-05-07 12:04 | 42.17014 | 19.50386 | 14935 ft | 295 kts | 195° |
| 2026-05-07 12:05 | 42.15005 | 19.49850 | 14616 ft | 294 kts | 195° |
| 2026-05-07 12:05 | 42.13008 | 19.49316 | 14310 ft | 291 kts | 195° |
| 2026-05-07 12:05 | 42.11027 | 19.48787 | 14017 ft | 290 kts | 195° |
| 2026-05-07 12:05 | 42.09059 | 19.48262 | 13699 ft | 287 kts | 195° |
| 2026-05-07 12:06 | 42.07105 | 19.47742 | 13366 ft | 285 kts | 195° |
| 2026-05-07 12:06 | 42.05179 | 19.47228 | 13070 ft | 281 kts | 195° |
| 2026-05-07 12:06 | 42.03268 | 19.46722 | 12749 ft | 279 kts | 195° |
| 2026-05-07 12:06 | 42.01374 | 19.46220 | 12455 ft | 275 kts | 195° |
| 2026-05-07 12:07 | 41.99495 | 19.45721 | 12125 ft | 275 kts | 195° |
| 2026-05-07 12:07 | 41.97587 | 19.45448 | 11926 ft | 282 kts | 179° |
| 2026-05-07 12:07 | 41.95625 | 19.45912 | 11624 ft | 289 kts | 175° |
| 2026-05-07 12:07 | 41.93637 | 19.46366 | 11290 ft | 289 kts | 175° |
| 2026-05-07 12:08 | 41.91645 | 19.46827 | 10947 ft | 290 kts | 175° |
| 2026-05-07 12:08 | 41.89658 | 19.47294 | 10626 ft | 290 kts | 174° |
| 2026-05-07 12:08 | 41.87675 | 19.47763 | 10277 ft | 290 kts | 174° |
| 2026-05-07 12:08 | 41.85683 | 19.48235 | 9936 ft | 291 kts | 174° |
| 2026-05-07 12:09 | 41.83685 | 19.48709 | 9514 ft | 292 kts | 174° |
| 2026-05-07 12:09 | 41.81688 | 19.49184 | 9156 ft | 291 kts | 174° |
| 2026-05-07 12:09 | 41.79701 | 19.49656 | 8800 ft | 290 kts | 174° |
| 2026-05-07 12:09 | 41.77730 | 19.50123 | 8447 ft | 283 kts | 174° |
| 2026-05-07 12:10 | 41.75801 | 19.50581 | 8147 ft | 280 kts | 173° |
| 2026-05-07 12:10 | 41.73911 | 19.51029 | 7837 ft | 279 kts | 173° |
| 2026-05-07 12:10 | 41.72006 | 19.51480 | 7490 ft | 278 kts | 173° |
| 2026-05-07 12:10 | 41.70098 | 19.51932 | 7175 ft | 278 kts | 173° |
| 2026-05-07 12:11 | 41.68194 | 19.52382 | 6870 ft | 277 kts | 172° |
| 2026-05-07 12:11 | 41.66324 | 19.52968 | 6529 ft | 277 kts | 158° |
| 2026-05-07 12:11 | 41.64813 | 19.54527 | 6086 ft | 277 kts | 128° |
| 2026-05-07 12:11 | 41.64084 | 19.56881 | 5731 ft | 276 kts | 99° |
| 2026-05-07 12:12 | 41.64155 | 19.59410 | 5493 ft | 269 kts | 85° |
| 2026-05-07 12:12 | 41.64344 | 19.61849 | 5216 ft | 260 kts | 88° |
| 2026-05-07 12:12 | 41.64495 | 19.64247 | 4789 ft | 257 kts | 94° |
| 2026-05-07 12:12 | 41.64130 | 19.66507 | 4362 ft | 245 kts | 121° |
| 2026-05-07 12:13 | 41.63083 | 19.68187 | 4067 ft | 230 kts | 148° |
| 2026-05-07 12:13 | 41.61702 | 19.69099 | 3831 ft | 218 kts | 164° |
| 2026-05-07 12:13 | 41.60257 | 19.69523 | 3595 ft | 209 kts | 173° |
| 2026-05-07 12:13 | 41.58836 | 19.69741 | 3327 ft | 200 kts | 174° |
| 2026-05-07 12:14 | 41.57472 | 19.69923 | 3046 ft | 194 kts | 174° |
| 2026-05-07 12:14 | 41.56162 | 19.70096 | 2793 ft | 179 kts | 174° |
| 2026-05-07 12:14 | 41.54993 | 19.70257 | 2549 ft | 162 kts | 173° |
| 2026-05-07 12:14 | 41.53866 | 19.70411 | 2400 ft | 163 kts | 174° |
| 2026-05-07 12:15 | 41.52770 | 19.70548 | 2125 ft | 153 kts | 173° |
| 2026-05-07 12:15 | 41.51749 | 19.70690 | 1897 ft | 143 kts | 174° |
| 2026-05-07 12:15 | 41.50772 | 19.70819 | 1708 ft | 141 kts | 174° |
| 2026-05-07 12:15 | 41.49792 | 19.70942 | 1542 ft | 141 kts | 173° |
| 2026-05-07 12:16 | 41.48816 | 19.71077 | 1346 ft | 142 kts | 173° |
| 2026-05-07 12:16 | 41.47844 | 19.71210 | 1148 ft | 139 kts | 173° |
| 2026-05-07 12:16 | 41.46896 | 19.71336 | 946 ft | 138 kts | 173° |
| 2026-05-07 12:16 | 41.45937 | 19.71454 | 819 ft | 139 kts | 172° |
| 2026-05-07 12:17 | 41.44967 | 19.71584 | 645 ft | 140 kts | 172° |
| 2026-05-07 12:17 | 41.43993 | 19.71723 | 434 ft | 140 kts | 172° |
| 2026-05-07 12:17 | 41.43042 | 19.71850 | 214 ft | 136 kts | 172° |
| 2026-05-07 12:17 | 41.42115 | 19.71969 | 126 ft | 118 kts | 174° |
| 2026-05-07 12:18 | 41.41546 | 19.72046 | 128 ft | 49 kts | 174° |
| 2026-05-07 12:18 | 41.41293 | 19.72080 | 128 ft | 36 kts | 174° |
| 2026-05-07 12:18 | 41.41045 | 19.72113 | 134 ft | 35 kts | 174° |
| 2026-05-07 12:18 | 41.40812 | 19.72145 | 135 ft | 29 kts | 174° |
| 2026-05-07 12:19 | 41.40683 | 19.72125 | 136 ft | 14 kts | 242° |
| 2026-05-07 12:19 | 41.40656 | 19.71982 | 134 ft | 18 kts | 256° |
| 2026-05-07 12:19 | 41.40629 | 19.71838 | 134 ft | 14 kts | 257° |
| 2026-05-07 12:19 | 41.40689 | 19.71760 | 134 ft | 15 kts | 354° |
| 2026-05-07 12:20 | 41.40801 | 19.71743 | 134 ft | 17 kts | 349° |
| 2026-05-07 12:20 | 41.40926 | 19.71711 | 134 ft | 19 kts | 351° |
| 2026-05-07 12:20 | 41.41067 | 19.71690 | 134 ft | 21 kts | 354° |
| 2026-05-07 12:20 | 41.41221 | 19.71670 | 134 ft | 23 kts | 354° |
| 2026-05-07 12:21 | 41.41387 | 19.71648 | 134 ft | 25 kts | 354° |
| 2026-05-07 12:21 | 41.41566 | 19.71624 | 134 ft | 24 kts | 354° |
| 2026-05-07 12:21 | 41.41691 | 19.71608 | 134 ft | 18 kts | 354° |
| 2026-05-07 12:21 | 41.41819 | 19.71592 | 134 ft | 20 kts | 355° |
| 2026-05-07 12:22 | 41.41900 | 19.71581 | 134 ft | 7 kts | 354° |
| 2026-05-07 12:22 | 41.41945 | 19.71573 | 134 ft | 5 kts | 339° |
| 2026-05-07 12:22 | 41.41955 | 19.71556 | 134 ft | 1 kts | 286° |
| 2026-05-07 12:22 | 41.41955 | 19.71540 | 134 ft | 3 kts | 262° |
| 2026-05-07 12:23 | 41.41953 | 19.71519 | 134 ft | 1 kts | 263° |
| 2026-05-07 12:23 | 41.41952 | 19.71511 | 134 ft | 0 kts | 263° |